createdAt,value
2023-04-23T00:00:14.386Z,8.00
2023-04-23T00:03:10.613Z,8.01
2023-04-23T00:05:39.522Z,8.00
2023-04-23T00:08:08.378Z,7.99
2023-04-23T00:10:37.131Z,7.97
2023-04-23T00:13:05.111Z,7.95
2023-04-23T00:15:33.817Z,7.93
2023-04-23T00:18:01.544Z,7.90
2023-04-23T00:20:29.361Z,7.88
2023-04-23T00:22:57.001Z,7.87
2023-04-23T00:25:24.684Z,7.84
2023-04-23T00:27:52.452Z,7.83
2023-04-23T00:30:20.071Z,7.82
2023-04-23T00:32:47.832Z,7.79
2023-04-23T00:35:15.744Z,7.76
2023-04-23T00:37:43.505Z,7.72
2023-04-23T00:40:11.833Z,7.69
2023-04-23T00:42:40.132Z,7.68
2023-04-23T00:45:08.831Z,7.69
2023-04-23T00:47:36.933Z,7.70
2023-04-23T00:50:06.587Z,7.70
2023-04-23T00:52:36.072Z,7.70
2023-04-23T00:55:04.091Z,7.69
2023-04-23T00:57:32.146Z,7.69
2023-04-23T01:00:00.536Z,7.67
2023-04-23T01:02:31.285Z,7.64
2023-04-23T01:05:01.813Z,7.62
2023-04-23T01:07:29.772Z,7.59
2023-04-23T01:09:57.733Z,7.56
2023-04-23T01:12:25.572Z,7.53
2023-04-23T01:14:53.674Z,7.49
2023-04-23T01:17:21.655Z,7.45
2023-04-23T01:19:49.478Z,7.42
2023-04-23T01:22:17.606Z,7.41
2023-04-23T01:24:45.550Z,7.41
2023-04-23T01:27:13.292Z,7.41
2023-04-23T01:29:41.491Z,7.41
2023-04-23T01:32:09.371Z,7.41
2023-04-23T01:34:37.326Z,7.39
2023-04-23T01:37:05.774Z,7.38
2023-04-23T01:39:34.329Z,7.36
2023-04-23T01:42:02.456Z,7.34
2023-04-23T01:44:30.549Z,7.31
2023-04-23T01:46:58.649Z,7.29
2023-04-23T01:49:26.724Z,7.25
2023-04-23T01:51:54.436Z,7.21
2023-04-23T01:54:22.199Z,7.17
2023-04-23T01:56:50.063Z,7.14
2023-04-23T01:59:17.724Z,7.10
2023-04-23T02:01:46.835Z,7.06
2023-04-23T02:04:15.949Z,7.01
2023-04-23T02:06:47.571Z,6.97
2023-04-23T02:09:15.323Z,6.94
2023-04-23T02:11:43.110Z,6.91
2023-04-23T02:14:11.181Z,6.89
2023-04-23T02:16:39.663Z,6.86
2023-04-23T02:19:07.398Z,6.83
2023-04-23T02:21:35.104Z,6.82
2023-04-23T02:24:02.819Z,6.80
2023-04-23T02:26:30.689Z,6.77
2023-04-23T02:28:58.334Z,6.75
2023-04-23T02:31:26.047Z,6.71
2023-04-23T02:33:53.740Z,6.71
2023-04-23T02:36:21.649Z,6.71
2023-04-23T02:38:51.279Z,6.72
2023-04-23T02:41:19.022Z,6.73
2023-04-23T02:43:46.991Z,6.73
2023-04-23T02:46:14.710Z,6.73
2023-04-23T02:48:42.501Z,6.72
2023-04-23T02:51:12.722Z,6.70
2023-04-23T02:53:40.479Z,6.68
2023-04-23T02:56:08.390Z,6.66
2023-04-23T02:58:36.867Z,6.65
2023-04-23T03:01:05.481Z,6.64
2023-04-23T03:03:33.989Z,6.65
2023-04-23T03:06:03.105Z,6.67
2023-04-23T03:08:30.855Z,6.65
2023-04-23T03:10:58.685Z,6.65
2023-04-23T03:13:26.968Z,6.64
2023-04-23T03:15:56.087Z,6.63
2023-04-23T03:18:23.927Z,6.61
2023-04-23T03:20:51.664Z,6.59
2023-04-23T03:23:19.358Z,6.57
2023-04-23T03:25:47.095Z,6.54
2023-04-23T03:28:14.807Z,6.51
2023-04-23T03:30:43.018Z,6.49
2023-04-23T03:33:10.956Z,6.49
2023-04-23T03:35:38.629Z,6.49
2023-04-23T03:38:06.485Z,6.48
2023-04-23T03:40:34.094Z,6.48
2023-04-23T03:43:01.804Z,6.47
2023-04-23T03:45:31.092Z,6.47
2023-04-23T03:47:58.753Z,6.47
2023-04-23T03:50:26.389Z,6.47
2023-04-23T03:52:54.087Z,6.48
2023-04-23T03:55:21.847Z,6.48
2023-04-23T03:57:49.613Z,6.50
2023-04-23T04:00:17.711Z,6.51
2023-04-23T04:02:45.573Z,6.52
2023-04-23T04:05:13.746Z,6.52
2023-04-23T04:07:42.424Z,6.54
2023-04-23T04:10:11.021Z,6.58
2023-04-23T04:12:39.994Z,6.64
2023-04-23T04:15:08.794Z,6.69
2023-04-23T04:17:36.497Z,6.73
2023-04-23T04:20:04.776Z,6.78
2023-04-23T04:22:32.466Z,6.83
2023-04-23T04:25:00.173Z,6.89
2023-04-23T04:27:27.949Z,6.96
2023-04-23T04:29:56.065Z,7.03
2023-04-23T04:32:23.851Z,7.10
2023-04-23T04:34:52.739Z,7.20
2023-04-23T04:37:21.523Z,7.31
2023-04-23T04:39:49.275Z,7.43
2023-04-23T04:42:17.097Z,7.60
2023-04-23T04:44:44.810Z,7.80
2023-04-23T04:47:13.685Z,8.02
2023-04-23T04:49:41.616Z,8.25
2023-04-23T04:52:09.351Z,8.55
2023-04-23T04:54:37.072Z,8.89
2023-04-23T04:57:04.808Z,9.23
2023-04-23T04:59:32.601Z,9.57
2023-04-23T05:02:01.010Z,9.92
2023-04-23T05:04:28.889Z,10.19
2023-04-23T05:06:56.603Z,10.33
2023-04-23T05:09:25.641Z,10.39
2023-04-23T05:11:53.332Z,10.41
2023-04-23T05:14:21.132Z,10.41
2023-04-23T05:16:49.193Z,10.40
2023-04-23T05:19:16.886Z,10.41
2023-04-23T05:21:44.625Z,10.42
2023-04-23T05:24:12.305Z,10.46
2023-04-23T05:26:39.994Z,10.49
2023-04-23T05:29:07.724Z,10.53
2023-04-23T05:31:35.576Z,10.58
2023-04-23T05:34:03.329Z,10.65
2023-04-23T05:36:31.839Z,10.73
2023-04-23T05:38:59.574Z,10.82
2023-04-23T05:41:27.632Z,10.90
2023-04-23T05:43:55.406Z,11.00
2023-04-23T05:46:23.221Z,11.11
2023-04-23T05:48:51.330Z,11.23
2023-04-23T05:51:19.090Z,11.36
2023-04-23T05:53:46.792Z,11.47
2023-04-23T05:56:14.519Z,11.59
2023-04-23T05:58:42.379Z,11.71
2023-04-23T06:01:10.098Z,11.83
2023-04-23T06:03:38.356Z,11.95
2023-04-23T06:06:06.520Z,12.09
2023-04-23T06:08:34.251Z,12.21
2023-04-23T06:11:02.331Z,12.34
2023-04-23T06:13:31.123Z,12.48
2023-04-23T06:15:58.908Z,12.61
2023-04-23T06:18:27.758Z,12.77
2023-04-23T06:20:57.060Z,12.92
2023-04-23T06:23:24.934Z,13.08
2023-04-23T06:25:52.829Z,13.25
2023-04-23T06:28:20.860Z,13.42
2023-04-23T06:30:48.572Z,13.61
2023-04-23T06:33:16.312Z,13.80
2023-04-23T06:35:43.983Z,13.98
2023-04-23T06:38:11.688Z,14.13
2023-04-23T06:40:39.497Z,14.29
2023-04-23T06:43:08.117Z,14.45
2023-04-23T06:45:36.040Z,14.61
2023-04-23T06:48:03.869Z,14.76
2023-04-23T06:50:31.777Z,14.89
2023-04-23T06:52:59.449Z,15.02
2023-04-23T06:55:28.975Z,15.16
2023-04-23T06:57:56.881Z,15.30
2023-04-23T07:00:24.882Z,15.43
2023-04-23T07:02:52.853Z,15.52
2023-04-23T07:05:20.846Z,15.63
2023-04-23T07:07:48.701Z,15.75
2023-04-23T07:10:17.969Z,15.89
2023-04-23T07:12:46.170Z,16.06
2023-04-23T07:15:14.166Z,16.20
2023-04-23T07:17:41.978Z,16.31
2023-04-23T07:20:09.858Z,16.46
2023-04-23T07:22:37.771Z,16.58
2023-04-23T07:25:06.189Z,16.64
2023-04-23T07:27:34.186Z,16.74
2023-04-23T07:30:02.494Z,16.81
2023-04-23T07:32:30.306Z,16.92
2023-04-23T07:34:58.228Z,17.05
2023-04-23T07:37:26.486Z,17.15
2023-04-23T07:39:54.209Z,17.24
2023-04-23T07:42:21.886Z,17.35
2023-04-23T07:44:49.531Z,17.45
2023-04-23T07:47:17.327Z,17.55
2023-04-23T07:49:45.468Z,17.64
2023-04-23T07:52:13.371Z,17.73
2023-04-23T07:54:41.328Z,17.83
2023-04-23T07:57:10.381Z,17.94
2023-04-23T07:59:41.618Z,18.01
2023-04-23T08:02:10.180Z,18.08
2023-04-23T08:04:38.270Z,18.18
2023-04-23T08:07:06.583Z,18.26
2023-04-23T08:09:34.672Z,18.32
2023-04-23T08:12:03.036Z,18.42
2023-04-23T08:14:30.804Z,18.52
2023-04-23T08:16:58.416Z,18.62
2023-04-23T08:19:31.681Z,18.67
2023-04-23T08:22:00.039Z,18.73
2023-04-23T08:24:27.893Z,18.79
2023-04-23T08:26:55.758Z,18.86
2023-04-23T08:29:23.428Z,18.96
2023-04-23T08:31:51.438Z,18.97
2023-04-23T08:34:19.406Z,18.99
2023-04-23T08:36:48.833Z,19.08
2023-04-23T08:39:17.151Z,19.20
2023-04-23T08:41:49.311Z,19.34
2023-04-23T08:44:23.711Z,19.46
2023-04-23T08:46:54.287Z,19.57
2023-04-23T08:49:22.216Z,19.68
2023-04-23T08:51:53.665Z,19.78
2023-04-23T08:54:29.085Z,19.86
2023-04-23T08:56:58.633Z,19.93
2023-04-23T08:59:29.769Z,19.98
2023-04-23T09:02:00.039Z,20.02
2023-04-23T09:04:28.626Z,20.06
2023-04-23T09:06:56.628Z,20.12
2023-04-23T09:09:24.683Z,20.18
2023-04-23T09:11:54.807Z,20.29
2023-04-23T09:14:25.590Z,20.37
2023-04-23T09:16:54.321Z,20.40
2023-04-23T09:19:23.123Z,20.49
2023-04-23T09:21:51.918Z,20.49
2023-04-23T09:24:22.709Z,20.49
2023-04-23T09:26:51.476Z,20.53
2023-04-23T09:29:23.785Z,20.59
2023-04-23T09:31:54.595Z,20.63
2023-04-23T09:34:24.445Z,20.70
2023-04-23T09:36:53.747Z,20.74
2023-04-23T09:39:24.694Z,20.75
2023-04-23T09:41:53.968Z,20.77
2023-04-23T09:44:23.130Z,20.79
2023-04-23T09:46:51.075Z,20.84
2023-04-23T09:49:19.180Z,20.85
2023-04-23T09:51:49.576Z,20.80
2023-04-23T09:54:22.733Z,20.85
2023-04-23T09:56:57.652Z,20.93
2023-04-23T09:59:43.535Z,20.92
2023-04-23T10:02:14.523Z,20.92
2023-04-23T10:04:42.868Z,20.99
2023-04-23T10:07:19.688Z,21.04
2023-04-23T10:09:48.545Z,21.12
2023-04-23T10:12:36.604Z,21.17
2023-04-23T10:15:07.501Z,21.23
2023-04-23T10:17:39.661Z,21.30
2023-04-23T10:20:09.592Z,21.36
2023-04-23T10:22:39.426Z,21.41
2023-04-23T10:25:12.442Z,21.43
2023-04-23T10:27:52.659Z,21.45
2023-04-23T10:30:23.242Z,21.51
2023-04-23T10:32:52.018Z,21.54
2023-04-23T10:35:20.262Z,21.55
2023-04-23T10:37:49.585Z,21.56
2023-04-23T10:40:32.744Z,21.54
2023-04-23T10:43:01.409Z,21.56
2023-04-23T10:45:32.110Z,21.62
2023-04-23T10:48:00.168Z,21.68
2023-04-23T10:50:29.859Z,21.71
2023-04-23T10:52:58.796Z,21.80
2023-04-23T10:55:29.150Z,21.85
2023-04-23T10:58:08.347Z,21.87
2023-04-23T11:00:46.222Z,21.95
2023-04-23T11:03:38.786Z,22.01
2023-04-23T11:06:13.783Z,22.09
2023-04-23T11:08:53.915Z,22.15
2023-04-23T11:11:42.575Z,22.22
2023-04-23T11:14:16.478Z,22.24
2023-04-23T11:16:44.532Z,22.30
2023-04-23T11:19:13.084Z,22.36
2023-04-23T11:22:14.147Z,22.43
2023-04-23T11:24:43.271Z,22.47
2023-04-23T11:27:18.766Z,22.50
2023-04-23T11:29:47.853Z,22.53
2023-04-23T11:32:17.305Z,22.56
2023-04-23T11:34:49.866Z,22.58
2023-04-23T11:37:18.633Z,22.63
2023-04-23T11:39:47.675Z,22.62
2023-04-23T11:42:16.536Z,22.65
2023-04-23T11:44:45.614Z,22.66
2023-04-23T11:47:16.354Z,22.66
2023-04-23T11:49:44.889Z,22.69
2023-04-23T11:52:16.013Z,22.71
2023-04-23T11:54:43.671Z,22.71
2023-04-23T11:57:12.057Z,22.70
2023-04-23T11:59:40.183Z,22.68
2023-04-23T12:02:08.229Z,22.68
2023-04-23T12:04:36.926Z,22.71
2023-04-23T12:07:12.935Z,22.76
2023-04-23T12:09:51.056Z,22.74
2023-04-23T12:12:18.946Z,22.79
2023-04-23T12:14:46.658Z,22.83
2023-04-23T12:17:14.373Z,22.91
2023-04-23T12:19:44.980Z,22.96
2023-04-23T12:22:12.825Z,23.00
2023-04-23T12:24:52.285Z,23.04
2023-04-23T12:27:24.531Z,23.03
2023-04-23T12:30:03.368Z,23.08
2023-04-23T12:32:34.491Z,23.10
2023-04-23T12:35:02.322Z,23.12
2023-04-23T12:37:31.609Z,23.13
2023-04-23T12:40:00.011Z,23.16
2023-04-23T12:42:27.823Z,23.15
2023-04-23T12:44:56.516Z,23.12
2023-04-23T12:47:24.722Z,23.12
2023-04-23T12:49:56.851Z,23.19
2023-04-23T12:52:24.751Z,23.22
2023-04-23T12:54:56.621Z,23.26
2023-04-23T12:57:24.821Z,23.26
2023-04-23T12:59:55.031Z,23.26
2023-04-23T13:02:24.472Z,23.29
2023-04-23T13:04:54.693Z,23.30
2023-04-23T13:07:22.493Z,23.34
2023-04-23T13:09:50.333Z,23.39
2023-04-23T13:12:18.199Z,23.46
2023-04-23T13:14:45.989Z,23.45
2023-04-23T13:17:13.717Z,23.46
2023-04-23T13:19:41.790Z,23.48
2023-04-23T13:22:09.860Z,23.43
2023-04-23T13:24:37.604Z,23.38
2023-04-23T13:27:05.670Z,23.35
2023-04-23T13:29:33.679Z,23.38
2023-04-23T13:32:01.677Z,23.30
2023-04-23T13:34:30.959Z,23.28
2023-04-23T13:36:58.856Z,23.31
2023-04-23T13:39:26.884Z,23.29
2023-04-23T13:42:08.922Z,23.31
2023-04-23T13:44:37.457Z,23.28
2023-04-23T13:47:05.470Z,23.31
2023-04-23T13:49:33.258Z,23.31
2023-04-23T13:52:06.934Z,23.30
2023-04-23T13:54:36.117Z,23.34
2023-04-23T13:57:04.263Z,23.36
2023-04-23T13:59:31.985Z,23.39
2023-04-23T14:01:59.787Z,23.41
2023-04-23T14:04:28.056Z,23.41
2023-04-23T14:06:55.950Z,23.43
2023-04-23T14:09:23.638Z,23.45
2023-04-23T14:11:51.455Z,23.44
2023-04-23T14:14:19.405Z,23.42
2023-04-23T14:16:47.175Z,23.42
2023-04-23T14:19:15.842Z,23.42
2023-04-23T14:21:44.021Z,23.47
2023-04-23T14:24:24.383Z,23.48
2023-04-23T14:26:52.158Z,23.45
2023-04-23T14:29:29.010Z,23.47
2023-04-23T14:31:56.822Z,23.49
2023-04-23T14:34:24.543Z,23.50
2023-04-23T14:36:53.494Z,23.51
2023-04-23T14:39:23.160Z,23.52
2023-04-23T14:41:50.898Z,23.54
2023-04-23T14:44:19.097Z,23.50
2023-04-23T14:46:48.096Z,23.37
2023-04-23T14:49:15.788Z,23.15
2023-04-23T14:51:44.507Z,22.96
2023-04-23T14:54:12.280Z,22.87
2023-04-23T14:56:39.938Z,22.88
2023-04-23T14:59:07.626Z,22.96
2023-04-23T15:01:35.506Z,22.99
2023-04-23T15:04:03.582Z,23.03
2023-04-23T15:06:31.419Z,23.09
2023-04-23T15:08:59.381Z,23.14
2023-04-23T15:11:27.240Z,23.15
2023-04-23T15:14:20.503Z,23.12
2023-04-23T15:16:49.819Z,23.12
2023-04-23T15:19:19.044Z,23.12
2023-04-23T15:21:47.888Z,23.15
2023-04-23T15:24:17.017Z,23.19
2023-04-23T15:26:49.548Z,23.20
2023-04-23T15:29:17.534Z,23.22
2023-04-23T15:31:45.580Z,23.27
2023-04-23T15:34:13.456Z,23.29
2023-04-23T15:36:41.131Z,23.25
2023-04-23T15:39:09.401Z,23.22
2023-04-23T15:41:40.276Z,23.24
2023-04-23T15:44:11.653Z,23.32
2023-04-23T15:46:40.026Z,23.38
2023-04-23T15:49:08.167Z,23.44
2023-04-23T15:51:37.026Z,23.47
2023-04-23T15:54:08.695Z,23.46
2023-04-23T15:56:37.290Z,23.47
2023-04-23T15:59:05.751Z,23.47
2023-04-23T16:01:33.687Z,23.48
2023-04-23T16:06:32.405Z,23.49
2023-04-23T16:09:01.368Z,23.48
2023-04-23T16:11:29.305Z,23.45
2023-04-23T16:13:57.089Z,23.41
2023-04-23T16:16:24.977Z,23.41
2023-04-23T16:18:53.665Z,23.49
2023-04-23T16:21:22.426Z,23.56
2023-04-23T16:23:50.247Z,23.58
2023-04-23T16:26:18.195Z,23.55
2023-04-23T16:28:51.856Z,23.44
2023-04-23T16:31:29.272Z,23.34
2023-04-23T16:33:57.356Z,23.26
2023-04-23T16:36:25.230Z,23.14
2023-04-23T16:38:52.974Z,23.06
2023-04-23T16:41:20.750Z,23.13
2023-04-23T16:43:48.747Z,23.29
2023-04-23T16:46:16.943Z,23.55
2023-04-23T16:48:45.493Z,23.87
2023-04-23T16:51:13.439Z,24.04
2023-04-23T16:53:41.421Z,24.11
2023-04-23T16:56:09.383Z,24.18
2023-04-23T16:58:37.256Z,24.14
2023-04-23T17:01:05.083Z,23.99
2023-04-23T17:03:33.928Z,23.73
2023-04-23T17:06:20.396Z,23.40
2023-04-23T17:08:48.092Z,23.01
2023-04-23T17:11:16.235Z,22.67
2023-04-23T17:13:44.085Z,22.34
2023-04-23T17:16:12.192Z,22.02
2023-04-23T17:18:39.902Z,21.73
2023-04-23T17:21:08.013Z,21.47
2023-04-23T17:23:35.733Z,21.22
2023-04-23T17:26:03.531Z,20.97
2023-04-23T17:28:31.365Z,20.73
2023-04-23T17:30:59.268Z,20.50
2023-04-23T17:33:27.144Z,20.27
2023-04-23T17:35:57.780Z,20.06
2023-04-23T17:38:26.252Z,19.86
2023-04-23T17:40:54.124Z,19.67
2023-04-23T17:43:22.001Z,19.50
2023-04-23T17:45:49.967Z,19.34
2023-04-23T17:48:18.245Z,19.16
2023-04-23T17:50:47.101Z,18.99
2023-04-23T17:53:15.081Z,18.84
2023-04-23T17:55:42.872Z,18.67
2023-04-23T17:58:10.629Z,18.50
2023-04-23T18:00:41.860Z,18.32
2023-04-23T18:03:11.951Z,18.18
2023-04-23T18:05:39.938Z,18.05
2023-04-23T18:08:08.423Z,17.92
2023-04-23T18:10:36.382Z,17.81
2023-04-23T18:13:05.485Z,17.69
2023-04-23T18:15:33.302Z,17.57
2023-04-23T18:18:01.106Z,17.46
2023-04-23T18:20:30.448Z,17.34
2023-04-23T18:22:58.583Z,17.23
2023-04-23T18:25:26.984Z,17.13
2023-04-23T18:27:54.719Z,17.04
2023-04-23T18:30:23.583Z,16.96
2023-04-23T18:33:00.902Z,16.87
2023-04-23T18:35:28.612Z,16.78
2023-04-23T18:38:09.552Z,16.71
2023-04-23T18:40:37.506Z,16.63
2023-04-23T18:43:05.281Z,16.54
2023-04-23T18:45:33.343Z,16.47
2023-04-23T18:48:18.666Z,16.40
2023-04-23T18:50:50.320Z,16.31
2023-04-23T18:53:19.853Z,16.23
2023-04-23T18:55:50.088Z,16.15
2023-04-23T18:58:17.717Z,16.08
2023-04-23T19:00:45.729Z,16.02
2023-04-23T19:03:25.262Z,15.94
2023-04-23T19:05:55.072Z,15.88
2023-04-23T19:08:28.465Z,15.82
2023-04-23T19:10:56.637Z,15.76
2023-04-23T19:13:24.811Z,15.71
2023-04-23T19:15:52.825Z,15.65
2023-04-23T19:18:20.844Z,15.60
2023-04-23T19:20:48.646Z,15.53
2023-04-23T19:23:16.369Z,15.46
2023-04-23T19:25:44.239Z,15.40
2023-04-23T19:28:12.011Z,15.36
2023-04-23T19:30:39.971Z,15.32
2023-04-23T19:33:07.783Z,15.29
2023-04-23T19:35:36.788Z,15.25
2023-04-23T19:38:06.082Z,15.21
2023-04-23T19:40:34.208Z,15.17
2023-04-23T19:43:02.587Z,15.13
2023-04-23T19:45:30.657Z,15.09
2023-04-23T19:48:01.557Z,15.05
2023-04-23T19:50:30.578Z,15.01
2023-04-23T19:52:58.341Z,14.97
2023-04-23T19:55:27.683Z,14.93
2023-04-23T19:57:56.667Z,14.88
2023-04-23T20:00:25.956Z,14.83
2023-04-23T20:02:55.507Z,14.79
2023-04-23T20:05:23.919Z,14.75
2023-04-23T20:07:52.653Z,14.71
2023-04-23T20:10:20.662Z,14.68
2023-04-23T20:12:48.349Z,14.72
2023-04-23T20:15:16.636Z,14.79
2023-04-23T20:17:44.339Z,14.83
2023-04-23T20:20:12.110Z,14.84
2023-04-23T20:22:39.832Z,14.85
2023-04-23T20:25:08.468Z,14.90
2023-04-23T20:27:36.329Z,14.97
2023-04-23T20:30:10.803Z,15.00
2023-04-23T20:32:38.591Z,15.01
2023-04-23T20:35:06.770Z,15.00
2023-04-23T20:37:35.298Z,14.96
2023-04-23T20:40:03.560Z,14.91
2023-04-23T20:42:32.142Z,14.88
2023-04-23T20:45:00.656Z,14.82
2023-04-23T20:47:28.538Z,14.76
2023-04-23T20:49:56.270Z,14.70
2023-04-23T20:52:24.224Z,14.64
2023-04-23T20:54:52.494Z,14.60
2023-04-23T20:57:21.295Z,14.55
2023-04-23T20:59:49.353Z,14.50
2023-04-23T21:02:17.462Z,14.43
2023-04-23T21:04:45.271Z,14.37
2023-04-23T21:07:13.088Z,14.29
2023-04-23T21:09:41.390Z,14.22
2023-04-23T21:12:09.504Z,14.14
2023-04-23T21:14:37.504Z,14.07
2023-04-23T21:17:05.958Z,14.02
2023-04-23T21:19:33.769Z,13.96
2023-04-23T21:22:01.991Z,13.90
2023-04-23T21:24:29.720Z,13.83
2023-04-23T21:26:57.439Z,13.78
2023-04-23T21:29:26.508Z,13.71
2023-04-23T21:31:54.464Z,13.63
2023-04-23T21:34:23.366Z,13.56
2023-04-23T21:36:51.121Z,13.48
2023-04-23T21:39:18.918Z,13.40
2023-04-23T21:41:47.306Z,13.31
2023-04-23T21:44:17.177Z,13.23
2023-04-23T21:46:46.014Z,13.16
2023-04-23T21:49:13.842Z,13.09
2023-04-23T21:51:41.561Z,13.01
2023-04-23T21:54:09.379Z,12.94
2023-04-23T21:56:37.213Z,12.89
2023-04-23T21:59:05.212Z,12.82
2023-04-23T22:01:35.876Z,12.74
2023-04-23T22:04:04.934Z,12.69
2023-04-23T22:06:34.404Z,12.64
2023-04-23T22:09:02.642Z,12.58
2023-04-23T22:11:31.414Z,12.54
2023-04-23T22:14:00.090Z,12.53
2023-04-23T22:16:29.038Z,12.51
2023-04-23T22:18:57.762Z,12.49
2023-04-23T22:21:25.610Z,12.47
2023-04-23T22:23:53.373Z,12.45
2023-04-23T22:26:21.674Z,12.42
2023-04-23T22:28:49.549Z,12.39
2023-04-23T22:31:18.603Z,12.35
2023-04-23T22:33:46.600Z,12.31
2023-04-23T22:36:14.393Z,12.27
2023-04-23T22:38:42.315Z,12.23
2023-04-23T22:41:10.101Z,12.19
2023-04-23T22:43:37.824Z,12.15
2023-04-23T22:46:05.551Z,12.12
2023-04-23T22:48:33.416Z,12.08
2023-04-23T22:51:02.190Z,12.04
2023-04-23T22:53:31.374Z,12.02
2023-04-23T22:55:59.104Z,12.00
2023-04-23T22:58:26.956Z,11.99
2023-04-23T23:00:55.704Z,11.97
2023-04-23T23:03:23.532Z,11.94
2023-04-23T23:05:51.314Z,11.91
2023-04-23T23:08:19.044Z,11.88
2023-04-23T23:10:46.722Z,11.85
2023-04-23T23:13:14.370Z,11.83
2023-04-23T23:15:42.075Z,11.81
2023-04-23T23:18:09.932Z,11.79
2023-04-23T23:20:37.780Z,11.74
2023-04-23T23:23:05.836Z,11.68
2023-04-23T23:25:33.908Z,11.64
2023-04-23T23:28:01.687Z,11.63
2023-04-23T23:30:29.351Z,11.60
2023-04-23T23:32:57.658Z,11.59
2023-04-23T23:35:25.512Z,11.58
2023-04-23T23:37:53.244Z,11.58
2023-04-23T23:40:20.933Z,11.58
2023-04-23T23:42:48.555Z,11.55
2023-04-23T23:45:16.638Z,11.54
2023-04-23T23:47:44.402Z,11.50
2023-04-23T23:50:12.132Z,11.46
2023-04-23T23:52:39.905Z,11.39
2023-04-23T23:55:07.893Z,11.30
2023-04-23T23:57:36.469Z,11.26
